createdAt,value
2024-03-14T00:05:00.122Z,8.75
2024-03-14T00:10:03.467Z,7.22
2024-03-14T00:15:07.814Z,7.30
2024-03-14T00:20:13.515Z,5.38
2024-03-14T00:25:16.614Z,4.00
2024-03-14T00:30:20.840Z,7.60
2024-03-14T00:35:25.421Z,5.82
2024-03-14T00:40:30.204Z,5.15
2024-03-14T00:45:33.404Z,5.07
2024-03-14T00:50:38.267Z,5.97
2024-03-14T00:55:42.820Z,7.47
2024-03-14T01:00:46.025Z,6.88
2024-03-14T01:05:49.137Z,5.28
2024-03-14T01:10:52.170Z,6.75
2024-03-14T01:15:55.395Z,6.47
2024-03-14T01:20:58.657Z,5.72
2024-03-14T01:26:05.370Z,5.95
2024-03-14T01:31:08.393Z,5.30
2024-03-14T01:36:12.142Z,5.93
2024-03-14T01:41:22.637Z,5.40
2024-03-14T01:46:29.160Z,5.07
2024-03-14T01:51:32.204Z,4.20
2024-03-14T01:56:37.529Z,4.43
2024-03-14T02:01:42.093Z,5.75
2024-03-14T02:07:02.646Z,7.03
2024-03-14T02:12:06.671Z,5.28
2024-03-14T02:17:09.833Z,7.18
2024-03-14T02:22:22.163Z,7.32
2024-03-14T02:27:25.828Z,14.23
2024-03-14T02:32:29.521Z,16.50
2024-03-14T02:37:34.044Z,12.43
2024-03-14T02:42:37.563Z,10.65
2024-03-14T02:47:40.682Z,9.40
2024-03-14T02:52:43.714Z,10.45
2024-03-14T02:57:46.802Z,10.38
2024-03-14T03:02:50.128Z,7.90
2024-03-14T03:07:55.575Z,11.43
2024-03-14T03:18:01.508Z,7.68
2024-03-14T03:23:08.098Z,8.35
2024-03-14T03:28:11.968Z,9.38
2024-03-14T03:33:18.814Z,9.15
2024-03-14T03:38:21.971Z,6.90
2024-03-14T03:43:27.632Z,8.05
2024-03-14T03:48:30.998Z,5.35
2024-03-14T03:53:34.392Z,4.45
2024-03-14T03:58:37.514Z,4.57
2024-03-14T04:03:43.521Z,5.38
2024-03-14T04:08:47.286Z,4.68
2024-03-14T04:13:51.896Z,5.38
2024-03-14T04:18:55.428Z,4.60
2024-03-14T04:23:58.616Z,6.85
2024-03-14T04:29:02.470Z,5.18
2024-03-14T04:34:06.458Z,3.88
2024-03-14T04:39:10.721Z,5.22
2024-03-14T04:44:15.864Z,3.20
2024-03-14T04:49:19.230Z,4.22
2024-03-14T04:54:25.830Z,7.15
2024-03-14T04:59:29.492Z,4.28
2024-03-14T05:04:32.770Z,7.10
2024-03-14T05:09:35.872Z,6.03
2024-03-14T05:14:39.077Z,3.85
2024-03-14T05:19:42.218Z,4.70
2024-03-14T05:24:45.566Z,6.78
2024-03-14T05:29:48.779Z,5.35
2024-03-14T05:34:51.964Z,5.32
2024-03-14T05:39:55.053Z,6.45
2024-03-14T05:44:59.517Z,5.22
2024-03-14T05:50:08.608Z,7.55
2024-03-14T05:55:12.406Z,7.78
2024-03-14T06:00:16.049Z,7.80
2024-03-14T06:05:19.453Z,6.03
2024-03-14T06:10:23.604Z,8.23
2024-03-14T06:15:26.643Z,6.43
2024-03-14T06:20:31.207Z,6.32
2024-03-14T06:25:34.286Z,6.57
2024-03-14T06:30:37.355Z,7.20
2024-03-14T06:35:40.927Z,7.00
2024-03-14T06:40:44.107Z,9.32
2024-03-14T06:45:47.644Z,7.38
2024-03-14T06:50:50.950Z,5.93
2024-03-14T06:55:54.139Z,9.40
2024-03-14T07:00:57.372Z,9.65
2024-03-14T07:06:00.557Z,9.00
2024-03-14T07:11:03.756Z,7.47
2024-03-14T07:16:11.169Z,8.73
2024-03-14T07:21:14.271Z,11.88
2024-03-14T07:26:33.475Z,9.90
2024-03-14T07:31:36.702Z,7.97
2024-03-14T07:36:43.098Z,6.95
2024-03-14T07:41:46.056Z,5.47
2024-03-14T07:46:49.940Z,5.70
2024-03-14T07:51:57.042Z,6.50
2024-03-14T07:57:00.065Z,5.80
2024-03-14T08:02:03.105Z,5.15
2024-03-14T08:07:11.887Z,6.90
2024-03-14T08:12:15.359Z,6.25
2024-03-14T08:17:21.830Z,6.70
2024-03-14T08:22:27.861Z,5.13
2024-03-14T08:27:30.953Z,5.05
2024-03-14T08:32:34.436Z,7.43
2024-03-14T08:37:37.515Z,7.53
2024-03-14T08:42:46.314Z,6.22
2024-03-14T08:47:53.371Z,6.07
2024-03-14T08:52:56.752Z,4.88
2024-03-14T08:58:04.179Z,5.43
2024-03-14T09:03:09.769Z,5.85
2024-03-14T09:08:13.199Z,6.13
2024-03-14T09:13:16.208Z,6.60
2024-03-14T09:18:20.912Z,5.93
2024-03-14T09:23:27.060Z,7.13
2024-03-14T09:28:30.616Z,6.65
2024-03-14T09:33:33.699Z,4.70
2024-03-14T09:38:37.938Z,5.20
2024-03-14T09:43:40.994Z,6.07
2024-03-14T09:48:44.367Z,7.63
2024-03-14T09:53:51.568Z,4.18
2024-03-14T09:58:58.172Z,5.72
2024-03-14T10:04:01.364Z,5.95
2024-03-14T10:09:17.677Z,4.65
2024-03-14T10:14:27.181Z,6.85
2024-03-14T10:19:32.224Z,5.28
2024-03-14T10:24:35.725Z,5.22
2024-03-14T10:29:38.686Z,4.82
2024-03-14T10:34:44.865Z,5.55
2024-03-14T10:39:55.756Z,4.20
2024-03-14T10:45:02.969Z,4.82
2024-03-14T10:50:18.237Z,6.65
2024-03-14T10:55:23.366Z,6.20
2024-03-14T11:00:26.731Z,6.13
2024-03-14T11:05:53.981Z,6.13
2024-03-14T11:11:00.186Z,6.35
2024-03-14T11:16:07.512Z,7.60
2024-03-14T11:21:13.684Z,6.18
2024-03-14T11:26:18.566Z,5.63
2024-03-14T11:31:21.993Z,4.55
2024-03-14T11:36:31.262Z,5.25
2024-03-14T11:41:37.773Z,5.75
2024-03-14T11:46:42.739Z,4.68
2024-03-14T11:51:51.184Z,6.07
2024-03-14T11:56:56.792Z,8.88
2024-03-14T12:02:03.828Z,9.13
2024-03-14T12:07:11.570Z,6.55
2024-03-14T12:12:14.956Z,7.57
2024-03-14T12:17:18.706Z,5.50
2024-03-14T12:22:23.166Z,5.40
2024-03-14T12:27:27.353Z,6.07
2024-03-14T12:37:34.615Z,6.60
2024-03-14T12:42:38.149Z,4.05
2024-03-14T12:47:49.048Z,6.07
2024-03-14T12:53:13.631Z,7.28
2024-03-14T12:58:24.239Z,6.22
2024-03-14T13:08:31.231Z,6.68
2024-03-14T13:13:34.939Z,8.15
2024-03-14T13:18:40.665Z,6.63
2024-03-14T13:23:43.789Z,5.95
2024-03-14T13:28:46.667Z,6.22
2024-03-14T13:33:49.815Z,6.47
2024-03-14T13:38:52.758Z,6.88
2024-03-14T13:43:56.103Z,5.45
2024-03-14T13:49:11.718Z,6.30
2024-03-14T13:54:19.237Z,6.10
2024-03-14T13:59:22.832Z,6.03
2024-03-14T14:04:27.968Z,7.30
2024-03-14T14:09:34.412Z,5.85
2024-03-14T14:14:37.574Z,5.75
2024-03-14T14:19:40.600Z,5.53
2024-03-14T14:24:43.893Z,7.10
2024-03-14T14:29:46.950Z,7.40
2024-03-14T14:34:50.291Z,8.35
2024-03-14T14:39:53.499Z,9.85
2024-03-14T14:44:57.465Z,7.40
2024-03-14T14:50:00.996Z,8.32
2024-03-14T14:55:15.189Z,8.85
2024-03-14T15:00:19.121Z,9.43
2024-03-14T15:05:22.226Z,8.65
2024-03-14T15:10:25.451Z,8.77
2024-03-14T15:15:28.970Z,8.90
2024-03-14T15:20:32.960Z,9.23
2024-03-14T15:25:37.117Z,10.43
2024-03-14T15:30:40.073Z,11.05
2024-03-14T15:35:44.628Z,9.70
2024-03-14T15:40:47.739Z,9.98
2024-03-14T15:45:50.814Z,12.25
2024-03-14T15:50:54.276Z,11.02
2024-03-14T15:55:57.698Z,12.50
2024-03-14T16:01:02.093Z,15.02
2024-03-14T16:06:05.897Z,10.95
2024-03-14T16:11:09.820Z,12.15
2024-03-14T16:16:15.037Z,10.80
2024-03-14T16:21:18.913Z,11.25
2024-03-14T16:26:25.087Z,11.13
2024-03-14T16:31:30.101Z,12.18
2024-03-14T16:36:35.178Z,11.48
2024-03-14T16:41:38.237Z,11.15
2024-03-14T16:46:41.449Z,11.30
2024-03-14T16:51:44.632Z,11.90
2024-03-14T16:56:48.292Z,9.38
2024-03-14T17:01:51.830Z,10.25
2024-03-14T17:06:55.038Z,9.43
2024-03-14T17:11:58.237Z,8.57
2024-03-14T17:17:08.241Z,11.70
2024-03-14T17:22:16.121Z,9.75
2024-03-14T17:27:19.317Z,10.60
2024-03-14T17:32:23.018Z,11.20
2024-03-14T17:37:26.222Z,14.32
2024-03-14T17:42:29.755Z,11.35
2024-03-14T17:47:35.294Z,11.43
2024-03-14T17:52:44.469Z,13.23
2024-03-14T17:57:51.171Z,14.13
2024-03-14T18:02:54.423Z,14.05
2024-03-14T18:07:57.411Z,14.73
2024-03-14T18:13:00.858Z,11.48
2024-03-14T18:18:06.742Z,9.52
2024-03-14T18:23:10.183Z,10.82
2024-03-14T18:28:13.518Z,9.38
2024-03-14T18:33:17.909Z,11.38
2024-03-14T18:38:21.001Z,10.82
2024-03-14T18:43:24.118Z,8.18
2024-03-14T18:48:27.250Z,8.23
2024-03-14T18:53:32.244Z,12.10
2024-03-14T18:58:36.171Z,11.68
2024-03-14T19:03:45.214Z,12.80
2024-03-14T19:08:50.978Z,11.30
2024-03-14T19:13:54.682Z,13.32
2024-03-14T19:19:01.146Z,11.75
2024-03-14T19:24:05.545Z,10.05
2024-03-14T19:29:12.350Z,12.65
2024-03-14T19:34:15.793Z,14.18
2024-03-14T19:39:21.035Z,13.27
2024-03-14T19:44:24.944Z,11.40
2024-03-14T19:49:29.056Z,12.15
2024-03-14T19:54:32.316Z,12.63
2024-03-14T19:59:35.594Z,10.85
2024-03-14T20:04:42.071Z,10.95
2024-03-14T20:09:45.768Z,8.70
2024-03-14T20:14:49.319Z,13.10
2024-03-14T20:19:52.589Z,12.95
2024-03-14T20:24:55.977Z,12.38
2024-03-14T20:30:00.712Z,9.85
2024-03-14T20:35:04.245Z,12.10
2024-03-14T20:40:09.567Z,15.43
2024-03-14T20:50:20.865Z,15.43
2024-03-14T21:00:40.763Z,14.48
2024-03-14T21:05:43.934Z,14.65
2024-03-14T21:10:47.163Z,13.73
2024-03-14T21:15:50.855Z,14.32
2024-03-14T21:20:57.883Z,15.25
2024-03-14T21:26:02.027Z,18.77
2024-03-14T21:31:05.466Z,16.75
2024-03-14T21:36:08.534Z,20.25
2024-03-14T21:41:11.621Z,16.52
2024-03-14T21:46:15.209Z,17.17
2024-03-14T21:51:19.301Z,15.05
2024-03-14T21:56:22.438Z,14.93
2024-03-14T22:01:26.140Z,17.20
2024-03-14T22:06:30.606Z,17.42
2024-03-14T22:11:33.830Z,16.35
2024-03-14T22:16:36.838Z,21.42
2024-03-14T22:21:41.560Z,19.30
2024-03-14T22:26:45.506Z,14.93
2024-03-14T22:31:49.207Z,19.23
2024-03-14T22:36:52.619Z,17.75
2024-03-14T22:41:55.759Z,19.02
2024-03-14T22:46:59.049Z,17.20
2024-03-14T22:52:02.096Z,18.00
2024-03-14T22:57:07.448Z,15.27
2024-03-14T23:02:11.046Z,22.30
2024-03-14T23:07:14.441Z,9.93
2024-03-14T23:12:17.487Z,18.30
2024-03-14T23:17:20.645Z,21.40
2024-03-14T23:22:23.692Z,17.55
2024-03-14T23:27:26.716Z,22.55
2024-03-14T23:32:30.656Z,21.25
2024-03-14T23:37:33.907Z,21.80
2024-03-14T23:42:38.925Z,22.77
2024-03-14T23:47:45.294Z,23.98
2024-03-14T23:52:49.046Z,21.85
2024-03-14T23:57:52.308Z,27.92
